createdAt,value
2023-04-20T00:01:23.978Z,7.80
2023-04-20T00:03:51.773Z,7.80
2023-04-20T00:06:18.703Z,7.80
2023-04-20T00:08:45.402Z,7.80
2023-04-20T00:11:12.320Z,7.70
2023-04-20T00:13:39.507Z,7.80
2023-04-20T00:16:06.406Z,7.80
2023-04-20T00:18:33.091Z,7.90
2023-04-20T00:20:59.764Z,7.80
2023-04-20T00:23:26.397Z,7.80
2023-04-20T00:25:54.906Z,7.90
2023-04-20T00:28:21.559Z,7.90
2023-04-20T00:30:48.375Z,7.90
2023-04-20T00:33:15.097Z,7.90
2023-04-20T00:35:42.242Z,7.80
2023-04-20T00:38:08.890Z,7.80
2023-04-20T00:40:35.614Z,7.90
2023-04-20T00:43:14.361Z,7.80
2023-04-20T00:45:41.388Z,7.80
2023-04-20T00:48:09.975Z,7.80
2023-04-20T00:50:38.091Z,7.80
2023-04-20T00:53:08.242Z,7.70
2023-04-20T00:55:37.698Z,7.70
2023-04-20T00:58:04.893Z,7.70
2023-04-20T01:00:33.753Z,7.70
2023-04-20T01:03:00.483Z,7.60
2023-04-20T01:05:27.317Z,7.70
2023-04-20T01:07:55.315Z,7.60
2023-04-20T01:10:21.950Z,7.60
2023-04-20T01:12:48.605Z,7.70
2023-04-20T01:15:15.649Z,7.70
2023-04-20T01:17:43.645Z,7.70
2023-04-20T01:20:12.683Z,7.70
2023-04-20T01:22:47.702Z,7.60
2023-04-20T01:25:14.876Z,7.60
2023-04-20T01:27:41.742Z,7.50
2023-04-20T01:30:08.981Z,7.50
2023-04-20T01:32:37.999Z,7.40
2023-04-20T01:35:05.623Z,7.40
2023-04-20T01:37:32.999Z,7.40
2023-04-20T01:40:03.775Z,7.60
2023-04-20T01:42:30.993Z,7.60
2023-04-20T01:44:58.024Z,7.60
2023-04-20T01:47:25.871Z,7.60
2023-04-20T01:49:52.594Z,7.50
2023-04-20T01:52:19.227Z,7.50
2023-04-20T01:54:48.473Z,7.40
2023-04-20T01:57:15.196Z,7.50
2023-04-20T01:59:41.880Z,7.60
2023-04-20T02:02:08.570Z,7.60
2023-04-20T02:04:35.416Z,7.70
2023-04-20T02:07:02.558Z,7.70
2023-04-20T02:09:29.366Z,7.80
2023-04-20T02:11:56.761Z,7.80
2023-04-20T02:14:23.394Z,7.80
2023-04-20T02:16:50.299Z,7.70
2023-04-20T02:19:17.193Z,7.80
2023-04-20T02:21:44.050Z,7.80
2023-04-20T02:24:10.888Z,7.80
2023-04-20T02:26:37.517Z,7.80
2023-04-20T02:29:04.180Z,7.80
2023-04-20T02:31:34.275Z,7.80
2023-04-20T02:34:01.183Z,7.80
2023-04-20T02:36:28.165Z,7.80
2023-04-20T02:38:54.803Z,7.70
2023-04-20T02:41:21.835Z,7.70
2023-04-20T02:43:49.333Z,7.70
2023-04-20T02:46:18.225Z,7.70
2023-04-20T02:48:45.140Z,7.70
2023-04-20T02:51:12.355Z,7.70
2023-04-20T02:53:43.259Z,7.60
2023-04-20T02:56:26.298Z,7.70
2023-04-20T02:58:55.560Z,7.60
2023-04-20T03:01:33.904Z,7.50
2023-04-20T03:04:08.242Z,7.40
2023-04-20T03:06:40.382Z,7.40
2023-04-20T03:09:09.955Z,7.40
2023-04-20T03:11:53.594Z,7.40
2023-04-20T03:14:36.429Z,7.40
2023-04-20T03:17:03.160Z,7.40
2023-04-20T03:19:29.865Z,7.40
2023-04-20T03:21:56.569Z,7.30
2023-04-20T03:24:23.985Z,7.40
2023-04-20T03:26:51.588Z,7.40
2023-04-20T03:29:24.673Z,7.40
2023-04-20T03:31:51.839Z,7.40
2023-04-20T03:34:18.857Z,7.40
2023-04-20T03:36:45.669Z,7.40
2023-04-20T03:39:12.307Z,7.40
2023-04-20T03:41:38.976Z,7.40
2023-04-20T03:44:06.918Z,7.40
2023-04-20T03:46:33.882Z,7.50
2023-04-20T03:49:00.557Z,7.50
2023-04-20T03:51:27.441Z,7.50
2023-04-20T03:53:54.078Z,7.50
2023-04-20T03:56:21.525Z,7.40
2023-04-20T03:58:48.965Z,7.30
2023-04-20T04:01:19.348Z,7.30
2023-04-20T04:03:48.528Z,7.20
2023-04-20T04:06:15.535Z,7.20
2023-04-20T04:08:42.217Z,7.10
2023-04-20T04:11:09.465Z,7.10
2023-04-20T04:13:36.270Z,7.10
2023-04-20T04:16:06.204Z,7.10
2023-04-20T04:18:32.875Z,7.10
2023-04-20T04:21:04.557Z,7.10
2023-04-20T04:23:31.360Z,7.10
2023-04-20T04:26:11.977Z,7.00
2023-04-20T04:28:42.498Z,7.00
2023-04-20T04:31:18.224Z,7.00
2023-04-20T04:33:46.291Z,7.00
2023-04-20T04:36:21.442Z,7.00
2023-04-20T04:38:48.963Z,7.10
2023-04-20T04:41:16.103Z,7.00
2023-04-20T04:43:45.567Z,7.00
2023-04-20T04:46:33.670Z,7.00
2023-04-20T04:49:04.265Z,7.00
2023-04-20T04:51:31.631Z,7.00
2023-04-20T04:53:58.291Z,7.00
2023-04-20T04:56:25.670Z,7.00
2023-04-20T04:58:52.388Z,7.00
2023-04-20T05:01:19.148Z,7.10
2023-04-20T05:03:46.357Z,7.10
2023-04-20T05:06:13.178Z,7.10
2023-04-20T05:08:40.165Z,7.10
2023-04-20T05:11:07.157Z,7.00
2023-04-20T05:13:33.787Z,7.00
2023-04-20T05:16:00.499Z,6.90
2023-04-20T05:18:27.174Z,6.90
2023-04-20T05:20:54.301Z,6.90
2023-04-20T05:23:21.316Z,6.80
2023-04-20T05:25:47.993Z,6.90
2023-04-20T05:28:14.669Z,6.90
2023-04-20T05:30:41.352Z,6.90
2023-04-20T05:33:08.449Z,6.90
2023-04-20T05:35:36.361Z,6.90
2023-04-20T05:38:06.121Z,6.80
2023-04-20T05:40:34.972Z,6.80
2023-04-20T05:43:01.693Z,6.80
2023-04-20T05:45:28.445Z,6.70
2023-04-20T05:47:56.567Z,6.80
2023-04-20T05:50:24.555Z,6.60
2023-04-20T05:52:52.220Z,6.70
2023-04-20T05:55:22.067Z,6.70
2023-04-20T05:57:51.648Z,6.80
2023-04-20T06:00:18.738Z,6.80
2023-04-20T06:02:45.680Z,6.80
2023-04-20T06:05:13.219Z,6.80
2023-04-20T06:07:40.366Z,6.90
2023-04-20T06:10:10.168Z,6.80
2023-04-20T06:12:37.135Z,6.80
2023-04-20T06:15:06.617Z,6.80
2023-04-20T06:17:36.075Z,6.80
2023-04-20T06:20:03.851Z,6.80
2023-04-20T06:22:30.560Z,6.80
2023-04-20T06:24:58.979Z,6.80
2023-04-20T06:27:25.928Z,6.90
2023-04-20T06:29:53.215Z,6.90
2023-04-20T06:32:20.121Z,6.90
2023-04-20T06:34:47.577Z,6.90
2023-04-20T06:37:14.469Z,6.90
2023-04-20T06:39:41.177Z,7.00
2023-04-20T06:42:08.533Z,6.90
2023-04-20T06:44:35.328Z,6.80
2023-04-20T06:47:02.104Z,6.70
2023-04-20T06:49:28.800Z,6.70
2023-04-20T06:51:56.096Z,6.70
2023-04-20T06:54:22.869Z,6.70
2023-04-20T06:56:50.449Z,6.70
2023-04-20T06:59:18.754Z,6.60
2023-04-20T07:01:45.724Z,6.60
2023-04-20T07:04:12.614Z,6.60
2023-04-20T07:06:39.406Z,6.70
2023-04-20T07:09:06.070Z,6.70
2023-04-20T07:11:32.790Z,6.60
2023-04-20T07:13:59.746Z,6.70
2023-04-20T07:16:26.503Z,6.80
2023-04-20T07:18:53.194Z,6.90
2023-04-20T07:21:19.842Z,6.90
2023-04-20T07:23:48.170Z,7.00
2023-04-20T07:26:15.022Z,7.10
2023-04-20T07:28:42.414Z,7.10
2023-04-20T07:31:09.068Z,7.10
2023-04-20T07:33:35.882Z,7.00
2023-04-20T07:36:02.973Z,7.00
2023-04-20T07:38:29.600Z,7.10
2023-04-20T07:40:56.263Z,7.00
2023-04-20T07:43:23.587Z,7.00
2023-04-20T07:45:50.901Z,7.00
2023-04-20T07:48:17.570Z,7.00
2023-04-20T07:50:45.580Z,7.10
2023-04-20T07:53:12.706Z,7.10
2023-04-20T07:55:39.376Z,7.20
2023-04-20T07:58:06.019Z,7.30
2023-04-20T08:00:32.678Z,7.20
2023-04-20T08:02:59.554Z,7.10
2023-04-20T08:05:27.187Z,7.10
2023-04-20T08:07:54.148Z,7.10
2023-04-20T08:10:21.213Z,7.20
2023-04-20T08:12:49.761Z,7.30
2023-04-20T08:15:17.745Z,7.30
2023-04-20T08:17:44.394Z,7.30
2023-04-20T08:20:11.245Z,7.30
2023-04-20T08:22:38.851Z,7.20
2023-04-20T08:25:05.889Z,7.30
2023-04-20T08:27:32.636Z,7.40
2023-04-20T08:29:59.327Z,7.40
2023-04-20T08:32:26.487Z,7.50
2023-04-20T08:34:54.029Z,7.60
2023-04-20T08:37:21.017Z,7.60
2023-04-20T08:39:47.738Z,7.70
2023-04-20T08:42:15.819Z,7.80
2023-04-20T08:44:42.865Z,7.90
2023-04-20T08:47:11.879Z,7.90
2023-04-20T08:49:39.638Z,7.90
2023-04-20T08:52:10.667Z,7.80
2023-04-20T08:54:55.208Z,7.90
2023-04-20T08:57:23.055Z,8.10
2023-04-20T08:59:49.721Z,8.40
2023-04-20T09:02:16.462Z,8.30
2023-04-20T09:04:43.411Z,8.10
2023-04-20T09:07:20.890Z,8.10
2023-04-20T09:09:58.321Z,8.10
2023-04-20T09:12:25.640Z,8.20
2023-04-20T09:14:52.738Z,8.20
2023-04-20T09:17:36.041Z,8.40
2023-04-20T09:20:05.169Z,8.50
2023-04-20T09:22:36.712Z,8.40
2023-04-20T09:25:16.594Z,8.30
2023-04-20T09:27:43.278Z,8.30
2023-04-20T09:30:11.469Z,8.20
2023-04-20T09:32:38.138Z,8.30
2023-04-20T09:35:06.694Z,8.30
2023-04-20T09:37:33.328Z,8.30
2023-04-20T09:40:01.195Z,8.20
2023-04-20T09:42:28.799Z,8.30
2023-04-20T09:44:57.565Z,8.40
2023-04-20T09:47:26.585Z,8.40
2023-04-20T09:49:54.270Z,8.70
2023-04-20T09:52:21.395Z,9.00
2023-04-20T09:54:48.701Z,9.20
2023-04-20T09:57:15.598Z,9.30
2023-04-20T09:59:43.874Z,9.30
2023-04-20T10:02:13.078Z,9.30
2023-04-20T10:04:56.675Z,9.10
2023-04-20T10:07:28.409Z,9.50
2023-04-20T10:10:08.445Z,9.50
2023-04-20T10:12:50.037Z,9.60
2023-04-20T10:15:17.231Z,9.60
2023-04-20T10:17:44.601Z,9.70
2023-04-20T10:20:23.371Z,9.90
2023-04-20T10:22:52.383Z,9.90
2023-04-20T10:25:28.392Z,10.00
2023-04-20T10:27:59.864Z,10.10
2023-04-20T10:30:28.243Z,10.10
2023-04-20T10:33:05.560Z,10.10
2023-04-20T10:35:45.914Z,10.30
2023-04-20T10:38:12.843Z,10.70
2023-04-20T10:40:39.716Z,10.60
2023-04-20T10:43:21.891Z,10.50
2023-04-20T10:45:50.140Z,10.40
2023-04-20T10:48:18.242Z,10.30
2023-04-20T10:50:45.426Z,10.50
2023-04-20T10:53:22.807Z,10.50
2023-04-20T10:55:59.941Z,10.50
2023-04-20T10:58:26.708Z,10.40
2023-04-20T11:01:01.380Z,10.30
2023-04-20T11:03:32.700Z,10.20
2023-04-20T11:06:01.658Z,10.20
2023-04-20T11:08:41.700Z,10.10
2023-04-20T11:11:27.427Z,10.00
2023-04-20T11:14:11.203Z,10.30
2023-04-20T11:16:50.525Z,10.30
2023-04-20T11:19:44.665Z,10.20
2023-04-20T11:22:21.562Z,10.10
2023-04-20T11:24:48.221Z,10.20
2023-04-20T11:27:22.211Z,10.40
2023-04-20T11:29:58.113Z,10.30
2023-04-20T11:32:25.583Z,10.10
2023-04-20T11:35:07.095Z,10.10
2023-04-20T11:37:46.862Z,10.10
2023-04-20T11:40:14.965Z,10.10
2023-04-20T11:42:41.778Z,10.30
2023-04-20T11:45:08.859Z,10.40
2023-04-20T11:47:35.565Z,10.40
2023-04-20T11:50:02.710Z,10.70
2023-04-20T11:52:29.386Z,10.80
2023-04-20T11:54:56.331Z,11.00
2023-04-20T11:57:23.872Z,11.20
2023-04-20T11:59:50.666Z,11.20
2023-04-20T12:02:17.494Z,11.10
2023-04-20T12:04:44.374Z,11.00
2023-04-20T12:07:11.173Z,11.00
2023-04-20T12:09:38.404Z,10.80
2023-04-20T12:12:06.047Z,10.80
2023-04-20T12:14:35.964Z,10.80
2023-04-20T12:17:04.283Z,10.90
2023-04-20T12:19:31.734Z,11.10
2023-04-20T12:21:58.479Z,11.40
2023-04-20T12:24:25.463Z,11.70
2023-04-20T12:26:52.365Z,11.70
2023-04-20T12:29:19.370Z,11.90
2023-04-20T12:31:46.479Z,12.00
2023-04-20T12:34:13.228Z,11.90
2023-04-20T12:36:40.528Z,11.80
2023-04-20T12:39:07.513Z,11.60
2023-04-20T12:41:34.881Z,11.40
2023-04-20T12:44:15.977Z,11.20
2023-04-20T12:46:42.779Z,11.10
2023-04-20T12:49:09.689Z,11.20
2023-04-20T12:51:36.387Z,11.40
2023-04-20T12:54:03.147Z,11.60
2023-04-20T12:56:30.020Z,11.80
2023-04-20T12:58:56.673Z,11.90
2023-04-20T13:01:23.993Z,11.90
2023-04-20T13:03:52.166Z,11.90
2023-04-20T13:06:19.120Z,11.90
2023-04-20T13:08:46.422Z,11.50
2023-04-20T13:11:15.404Z,11.40
2023-04-20T13:13:42.791Z,11.20
2023-04-20T13:16:09.710Z,11.30
2023-04-20T13:18:36.619Z,11.30
2023-04-20T13:21:03.488Z,11.30
2023-04-20T13:23:30.153Z,11.40
2023-04-20T13:25:59.086Z,11.50
2023-04-20T13:28:26.026Z,11.80
2023-04-20T13:30:55.653Z,12.00
2023-04-20T13:33:22.310Z,12.00
2023-04-20T13:35:49.071Z,12.10
2023-04-20T13:38:16.004Z,12.00
2023-04-20T13:40:44.398Z,12.00
2023-04-20T13:43:11.848Z,12.20
2023-04-20T13:45:38.999Z,12.20
2023-04-20T13:48:05.881Z,12.10
2023-04-20T13:50:32.596Z,12.00
2023-04-20T13:52:59.242Z,12.00
2023-04-20T13:55:27.216Z,11.90
2023-04-20T13:57:53.925Z,12.00
2023-04-20T14:00:20.724Z,12.10
2023-04-20T14:02:47.695Z,12.30
2023-04-20T14:05:14.535Z,12.50
2023-04-20T14:07:41.182Z,12.60
2023-04-20T14:10:08.636Z,12.40
2023-04-20T14:12:35.431Z,12.30
2023-04-20T14:15:02.334Z,12.00
2023-04-20T14:17:29.017Z,12.00
2023-04-20T14:19:56.006Z,12.00
2023-04-20T14:22:22.679Z,12.00
2023-04-20T14:24:49.431Z,12.10
2023-04-20T14:27:16.141Z,12.20
2023-04-20T14:29:42.900Z,12.20
2023-04-20T14:32:09.607Z,11.90
2023-04-20T14:34:36.280Z,11.80
2023-04-20T14:37:02.967Z,11.60
2023-04-20T14:39:29.628Z,11.60
2023-04-20T14:41:56.279Z,11.70
2023-04-20T14:44:22.979Z,11.80
2023-04-20T14:46:49.739Z,12.00
2023-04-20T14:49:16.676Z,12.10
2023-04-20T14:51:43.376Z,12.20
2023-04-20T14:54:10.047Z,12.20
2023-04-20T14:56:36.693Z,12.10
2023-04-20T14:59:03.470Z,12.00
2023-04-20T15:01:30.449Z,11.90
2023-04-20T15:03:57.373Z,11.90
2023-04-20T15:06:24.248Z,11.90
2023-04-20T15:08:54.463Z,12.00
2023-04-20T15:11:21.162Z,12.00
2023-04-20T15:13:49.382Z,12.00
2023-04-20T15:16:16.134Z,12.00
2023-04-20T15:18:43.197Z,12.00
2023-04-20T15:21:10.688Z,12.10
2023-04-20T15:23:37.425Z,12.30
2023-04-20T15:26:04.288Z,12.30
2023-04-20T15:28:30.923Z,12.40
2023-04-20T15:30:57.647Z,12.40
2023-04-20T15:33:24.939Z,12.40
2023-04-20T15:35:51.624Z,12.30
2023-04-20T15:38:18.927Z,12.30
2023-04-20T15:40:46.633Z,12.40
2023-04-20T15:43:13.293Z,12.50
2023-04-20T15:45:40.807Z,12.60
2023-04-20T15:48:08.947Z,12.60
2023-04-20T15:50:36.068Z,12.60
2023-04-20T15:53:03.046Z,12.60
2023-04-20T15:55:34.254Z,12.60
2023-04-20T15:58:01.157Z,12.50
2023-04-20T16:00:27.859Z,12.40
2023-04-20T16:02:55.011Z,12.40
2023-04-20T16:05:22.794Z,12.40
2023-04-20T16:07:50.164Z,12.40
2023-04-20T16:10:16.955Z,12.40
2023-04-20T16:12:43.630Z,12.40
2023-04-20T16:15:10.425Z,12.40
2023-04-20T16:17:37.172Z,12.50
2023-04-20T16:20:05.549Z,12.40
2023-04-20T16:22:32.216Z,12.40
2023-04-20T16:24:58.928Z,12.40
2023-04-20T16:27:27.420Z,12.40
2023-04-20T16:29:54.142Z,12.40
2023-04-20T16:32:21.173Z,12.30
2023-04-20T16:34:48.294Z,12.30
2023-04-20T16:37:15.014Z,12.20
2023-04-20T16:39:42.363Z,12.20
2023-04-20T16:42:09.148Z,12.20
2023-04-20T16:44:35.805Z,12.20
2023-04-20T16:47:02.604Z,12.20
2023-04-20T16:49:29.445Z,12.00
2023-04-20T16:51:57.508Z,11.90
2023-04-20T16:54:24.844Z,11.80
2023-04-20T16:56:52.350Z,11.80
2023-04-20T16:59:19.114Z,11.70
2023-04-20T17:01:45.878Z,11.50
2023-04-20T17:04:13.055Z,11.50
2023-04-20T17:06:39.750Z,11.50
2023-04-20T17:09:06.722Z,11.50
2023-04-20T17:11:37.995Z,11.40
2023-04-20T17:14:04.722Z,11.40
2023-04-20T17:16:31.463Z,11.10
2023-04-20T17:18:58.805Z,10.90
2023-04-20T17:21:27.577Z,10.70
2023-04-20T17:23:54.863Z,10.30
2023-04-20T17:26:21.746Z,10.10
2023-04-20T17:28:49.467Z,10.00
2023-04-20T17:31:16.714Z,9.80
2023-04-20T17:33:44.825Z,9.70
2023-04-20T17:36:11.550Z,9.70
2023-04-20T17:38:38.629Z,9.60
2023-04-20T17:41:05.416Z,9.60
2023-04-20T17:43:32.133Z,9.50
2023-04-20T17:45:58.961Z,9.60
2023-04-20T17:48:25.813Z,9.60
2023-04-20T17:50:52.613Z,9.60
2023-04-20T17:53:19.583Z,9.60
2023-04-20T17:55:46.281Z,9.40
2023-04-20T17:58:13.066Z,9.50
2023-04-20T18:00:40.395Z,9.60
2023-04-20T18:03:07.125Z,9.60
2023-04-20T18:05:33.987Z,9.60
2023-04-20T18:08:00.806Z,9.60
2023-04-20T18:10:28.037Z,9.60
2023-04-20T18:12:55.378Z,9.40
2023-04-20T18:15:22.074Z,9.40
2023-04-20T18:17:49.409Z,9.40
2023-04-20T18:20:16.525Z,9.30
2023-04-20T18:22:43.519Z,9.20
2023-04-20T18:25:10.396Z,9.20
2023-04-20T18:27:37.636Z,9.10
2023-04-20T18:30:04.891Z,9.20
2023-04-20T18:32:32.878Z,9.20
2023-04-20T18:35:00.195Z,9.20
2023-04-20T18:37:27.378Z,9.20
2023-04-20T18:39:54.706Z,9.20
2023-04-20T18:42:21.438Z,9.00
2023-04-20T18:44:50.915Z,9.00
2023-04-20T18:47:18.840Z,8.90
2023-04-20T18:49:45.526Z,8.80
2023-04-20T18:52:13.605Z,8.80
2023-04-20T18:54:40.579Z,8.80
2023-04-20T18:57:07.701Z,8.80
2023-04-20T18:59:34.433Z,8.70
2023-04-20T19:02:01.274Z,8.80
2023-04-20T19:04:29.601Z,8.80
2023-04-20T19:06:56.329Z,8.80
2023-04-20T19:09:23.009Z,8.80
2023-04-20T19:11:50.771Z,8.80
2023-04-20T19:14:19.148Z,8.80
2023-04-20T19:16:45.999Z,8.80
2023-04-20T19:19:12.767Z,8.70
2023-04-20T19:21:39.742Z,8.70
2023-04-20T19:24:06.701Z,8.80
2023-04-20T19:26:33.331Z,8.80
2023-04-20T19:29:00.278Z,8.80
2023-04-20T19:31:31.913Z,8.80
2023-04-20T19:33:58.638Z,8.70
2023-04-20T19:36:25.628Z,8.70
2023-04-20T19:38:52.518Z,8.60
2023-04-20T19:41:19.277Z,8.70
2023-04-20T19:43:45.906Z,8.70
2023-04-20T19:46:15.172Z,8.70
2023-04-20T19:48:43.548Z,8.70
2023-04-20T19:51:11.533Z,8.70
2023-04-20T19:53:38.605Z,8.70
2023-04-20T19:56:06.510Z,8.60
2023-04-20T19:58:33.467Z,8.60
2023-04-20T20:01:00.273Z,8.70
2023-04-20T20:03:27.576Z,8.70
2023-04-20T20:05:54.378Z,8.60
2023-04-20T20:08:21.272Z,8.60
2023-04-20T20:10:47.994Z,8.60
2023-04-20T20:13:14.879Z,8.60
2023-04-20T20:15:41.784Z,8.60
2023-04-20T20:18:10.364Z,8.60
2023-04-20T20:20:37.739Z,8.60
2023-04-20T20:23:04.396Z,8.60
2023-04-20T20:25:33.358Z,8.50
2023-04-20T20:28:01.848Z,8.50
2023-04-20T20:30:29.028Z,8.50
2023-04-20T20:32:58.657Z,8.40
2023-04-20T20:35:31.466Z,8.50
2023-04-20T20:37:59.863Z,8.40
2023-04-20T20:40:26.580Z,8.40
2023-04-20T20:42:54.220Z,8.30
2023-04-20T20:45:21.763Z,8.20
2023-04-20T20:47:48.579Z,8.20
2023-04-20T20:50:16.531Z,8.10
2023-04-20T20:52:43.623Z,8.10
2023-04-20T20:55:11.271Z,8.10
2023-04-20T20:57:38.150Z,8.10
2023-04-20T21:00:09.888Z,8.20
2023-04-20T21:02:37.205Z,8.20
2023-04-20T21:05:05.202Z,8.30
2023-04-20T21:07:31.916Z,8.20
2023-04-20T21:09:58.571Z,8.20
2023-04-20T21:12:25.319Z,8.20
2023-04-20T21:14:52.198Z,8.20
2023-04-20T21:17:19.396Z,8.20
2023-04-20T21:19:46.548Z,8.20
2023-04-20T21:22:13.247Z,8.20
2023-04-20T21:24:40.476Z,8.30
2023-04-20T21:27:07.239Z,8.20
2023-04-20T21:29:33.928Z,8.20
2023-04-20T21:32:00.630Z,8.20
2023-04-20T21:34:27.692Z,8.20
2023-04-20T21:36:54.555Z,8.10
2023-04-20T21:39:21.359Z,8.00
2023-04-20T21:41:48.076Z,8.00
2023-04-20T21:44:14.763Z,8.00
2023-04-20T21:46:41.430Z,8.00
2023-04-20T21:49:08.272Z,8.00
2023-04-20T21:51:34.896Z,7.90
2023-04-20T21:54:01.592Z,8.00
2023-04-20T21:56:28.296Z,8.00
2023-04-20T21:58:55.165Z,8.00
2023-04-20T22:01:21.818Z,8.10
2023-04-20T22:03:48.677Z,8.10
2023-04-20T22:06:15.532Z,8.00
2023-04-20T22:08:42.499Z,8.00
2023-04-20T22:11:09.513Z,8.10
2023-04-20T22:13:36.795Z,8.10
2023-04-20T22:16:03.904Z,8.00
2023-04-20T22:18:30.736Z,8.00
2023-04-20T22:20:57.576Z,7.90
2023-04-20T22:23:24.309Z,7.90
2023-04-20T22:25:50.983Z,7.90
2023-04-20T22:28:18.128Z,7.80
2023-04-20T22:30:44.799Z,7.80
2023-04-20T22:33:11.490Z,7.80
2023-04-20T22:35:38.173Z,7.70
2023-04-20T22:38:04.960Z,7.80
2023-04-20T22:40:31.664Z,7.80
2023-04-20T22:42:58.311Z,7.80
2023-04-20T22:45:25.118Z,7.90
2023-04-20T22:47:51.813Z,8.00
2023-04-20T22:50:18.584Z,8.00
2023-04-20T22:52:45.978Z,8.10
2023-04-20T22:55:13.930Z,8.00
2023-04-20T22:57:40.588Z,8.00
2023-04-20T23:00:10.482Z,8.00
2023-04-20T23:02:37.695Z,8.10
2023-04-20T23:05:05.627Z,8.00
2023-04-20T23:07:33.306Z,8.10
2023-04-20T23:10:00.375Z,8.10
2023-04-20T23:12:29.249Z,8.10
2023-04-20T23:14:56.489Z,8.10
2023-04-20T23:17:23.366Z,8.00
2023-04-20T23:19:50.921Z,8.00
2023-04-20T23:22:17.991Z,7.90
2023-04-20T23:24:44.775Z,7.90
2023-04-20T23:27:11.413Z,7.90
2023-04-20T23:29:38.101Z,7.90
2023-04-20T23:32:05.085Z,7.90
2023-04-20T23:34:31.812Z,7.90
2023-04-20T23:36:58.645Z,8.00
2023-04-20T23:39:25.390Z,8.00
2023-04-20T23:41:52.068Z,8.10
2023-04-20T23:44:18.837Z,8.00
2023-04-20T23:46:46.265Z,8.00
2023-04-20T23:49:12.961Z,8.10
2023-04-20T23:51:39.600Z,8.10
2023-04-20T23:54:06.255Z,8.10
2023-04-20T23:56:32.880Z,8.10
2023-04-20T23:58:59.591Z,8.10
